METAR* REPORTS - Stations within 60 miles

(*Meteorological Terminal Aviation Routine weather report)

 

KRDG - Reading, Pennsylvania, USA
Distance from station: SE 19mi, 31km
Updated: Mon, 25-May-2020 11:54am EDT
Mostly Cloudy
Mostly Cloudy
 Wind from calm
Wind: Calm
Temperature: 68°F , 20°C
Dew Point: 57°F , 14°C
Humidity: 69%
Barometer: 30.22 inHg , 1023.4 hPa
Clouds: Mostly Cloudy
Visibility: 10 miles , 16 km
Cloud details: Mostly Cloudy 2000 ft
2020/05/25 15:54 KRDG 251554Z 00000KT 10SM BKN020 20/14 A3022 RMK AO2 SLP238 T02000139
KLNS - Lancaster, Pennsylvania, USA
Distance from station: S 33mi, 53km
Updated: Mon, 25-May-2020 11:53am EDT
Overcast
Overcast
 Wind from calm
Wind: Calm
Temperature: 66°F , 19°C
Dew Point: 55°F , 13°C
Humidity: 68%
Barometer: 30.24 inHg , 1024 hPa
Clouds: Overcast
Visibility: 10 miles , 16 km
Cloud details: Overcast 1900 ft
2020/05/25 15:53 KLNS 251553Z 00000KT 10SM OVC019 19/13 A3024 RMK AO2 SLP238 T01940128
 
KSEG - Selinsgrove, Pennsylvania, USA
Distance from station: WNW 39mi, 62km
Updated: Mon, 25-May-2020 11:53am EDT
Overcast
Overcast
 Wind from S
Wind: S 7 mph , 11 km/h
Temperature: 66°F , 19°C
Dew Point: 57°F , 14°C
Humidity: 73%
Barometer: 30.22 inHg , 1023.4 hPa
Clouds: Overcast
Visibility: 10 miles , 16 km
Cloud details: Overcast 2100 ft
2020/05/25 15:53 KSEG 251553Z AUTO 18006KT 10SM OVC021 19/14 A3022 RMK AO2 SLP231 T01890139
KABE - Allentown, Pennsylvania, USA
Distance from station: E 39mi, 63km
Updated: Mon, 25-May-2020 11:51am EDT
Overcast
Overcast
 Wind from SW
Wind: SW 5 mph , 7 km/h
Temperature: 64°F , 18°C
Dew Point: 55°F , 13°C
Humidity: 73%
Barometer: 30.23 inHg , 1023.7 hPa
Clouds: Overcast
Visibility: 10 miles , 16 km
Cloud details: Overcast 1900 ft
2020/05/25 15:51 KABE 251551Z 23004KT 10SM OVC019 18/13 A3023 RMK AO2 SLP236 T01780128
 
KMDT - Middletown, Pennsylvania, USA
Distance from station: SW 40mi, 65km
Updated: Mon, 25-May-2020 12:09pm EDT
Partly Cloudy
Partly Cloudy
 Wind from SSE
Wind: SSE 3 mph , 6 km/h
Temperature: 66°F , 19°C
Dew Point: 55°F , 13°C
Humidity: 68%
Barometer: 30.23 inHg , 1023.7 hPa
Clouds: Partly Cloudy
Visibility: 10 miles , 16 km
Cloud details: Partly Cloudy 2000 ft
2020/05/25 16:09 KMDT 251609Z 16003KT 10SM SCT020 19/13 A3023 RMK AO2 T01940133 $
KPTW - Pottstown, Pennsylvania, USA
Distance from station: SE 42mi, 67km
Updated: Mon, 25-May-2020 11:54am EDT
Overcast
Overcast
 Wind from NW
Wind: NW 3 mph , 6 km/h
Temperature: 63°F , 17°C
Dew Point: 55°F , 13°C
Humidity: 77%
Barometer: 30.25 inHg , 1024.4 hPa
Clouds: Overcast
Visibility: 9 miles , 14 km
Cloud details: Overcast 1500 ft
2020/05/25 15:54 KPTW 251554Z AUTO 31003KT 9SM OVC015 17/13 A3025 RMK AO2 SLP241 T01670133
 
KCXY - Harrisburg, Pennsylvania, USA
Distance from station: SW 43mi, 69km
Updated: Mon, 25-May-2020 11:56am EDT
Overcast
Overcast
 Wind from NE
Wind: NE 5 mph , 7 km/h
Temperature: 66°F , 19°C
Dew Point: 55°F , 13°C
Humidity: 68%
Barometer: 30.24 inHg , 1024 hPa
Clouds: Overcast
Visibility: 10 miles , 16 km
Cloud details: Overcast 1800 ft
2020/05/25 15:56 KCXY 251556Z 04004KT 10SM OVC018 19/13 A3024 RMK AO2 SLP240 T01890128
KUKT - Quakertown Arp, Pennsylvania, USA
Distance from station: ESE 44mi, 70km
Updated: Mon, 25-May-2020 12:20pm EDT
Overcast
Overcast
 Wind from varies
Wind: varies 3 mph , 6 km/h
Temperature: 66°F , 19°C
Dew Point: 59°F , 15°C
Humidity: 78%
Barometer: 30.24 inHg , 1024 hPa
Clouds: Overcast
Visibility: 10 miles , 16 km
Cloud details: Overcast 1600 ft
2020/05/25 16:20 KUKT 251620Z AUTO VRB03KT 10SM OVC016 19/15 A3024 RMK A01
 
KMQS - Coatesville, Pennsylvania, USA
Distance from station: SSE 45mi, 72km
Updated: Mon, 25-May-2020 12:15pm EDT
Overcast
Overcast
 Wind from calm
Wind: Calm
Temperature: 63°F , 17°C
Dew Point: 57°F , 14°C
Humidity: 83%
Barometer: 30.26 inHg , 1024.7 hPa
Clouds: Overcast
Visibility: 10 miles , 16 km
Cloud details: Overcast 1200 ft
2020/05/25 16:15 KMQS 251615Z AUTO 00000KT 10SM OVC012 17/14 A3026 RMK AO2
KMPO - Mt. Pocono, Pennsylvania, USA
Distance from station: NE 57mi, 92km
Updated: Mon, 25-May-2020 11:53am EDT
Clear
Clear
 
Temperature: 64°F , 18°C
Dew Point: 54°F , 12°C
Humidity: 68%
Barometer: 30.23 inHg , 1023.7 hPa
Clouds: Clear
Visibility: 10 miles , 16 km
2020/05/25 15:53 KMPO 251553Z AUTO 10SM CLR 18/12 A3023 RMK AO2 SLP235 T01830117 $
 
KAVP - Avoca/Wilkes B., Pennsylvania, USA
Distance from station: NNE 58mi, 93km
Updated: Mon, 25-May-2020 11:54am EDT
Mostly Cloudy
Mostly Cloudy
 Wind from W
Wind: W 10 mph , 17 km/h
Temperature: 72°F , 22°C
Dew Point: 55°F , 13°C
Humidity: 57%
Barometer: 30.20 inHg , 1022.7 hPa
Clouds: Mostly Cloudy
Visibility: 10 miles , 16 km
Cloud details: Mostly Cloudy 4500 ft
Mostly Cloudy 5000 ft
2020/05/25 15:54 KAVP 251554Z 27009KT 240V320 10SM BKN045 BKN050 22/13 A3020 RMK AO2 SLP221 T02170133
KTHV - York, Pennsylvania, USA
Distance from station: SW 59mi, 94km
Updated: Mon, 25-May-2020 11:53am EDT
Overcast
Overcast
 Wind from E
Wind: E 3 mph , 6 km/h
Temperature: 66°F , 19°C
Dew Point: 55°F , 13°C
Humidity: 68%
Barometer: 30.24 inHg , 1024 hPa
Clouds: Overcast
Visibility: 8 miles , 13 km
Cloud details: Overcast 1900 ft
2020/05/25 15:53 KTHV 251553Z AUTO 10003KT 8SM OVC019 19/13 A3024 RMK AO2 SLP240 T01890133
 
KDYL - Doylestown, Pennsylvania, USA
Distance from station: ESE 59mi, 95km
Updated: Mon, 25-May-2020 11:54am EDT
Overcast
Overcast
 Wind from calm
Wind: Calm
Temperature: 64°F , 18°C
Dew Point: 55°F , 13°C
Humidity: 73%
Barometer: 30.23 inHg , 1023.7 hPa
Clouds: Overcast
Visibility: 10 miles , 16 km
Cloud details: Overcast 1300 ft
2020/05/25 15:54 KDYL 251554Z AUTO 00000KT 10SM OVC013 18/13 A3023 RMK AO2 SLP234 T01830133
KIPT - Williamsport, Pennsylvania, USA
Distance from station: NW 60mi, 96km
Updated: Mon, 25-May-2020 11:54am EDT
Overcast
Overcast
 Wind from E
Wind: E 5 mph , 7 km/h
Temperature: 64°F , 18°C
Dew Point: 57°F , 14°C
Humidity: 78%
Barometer: 30.20 inHg , 1022.7 hPa
Clouds: Overcast
Visibility: 10 miles , 16 km
Cloud details: Overcast 1700 ft
2020/05/25 15:54 KIPT 251554Z 10004KT 10SM OVC017 18/14 A3020 RMK AO2 SLP223 T01830144